sensor_id;sensor_type;location;lat;lon;timestamp;P1;durP1;ratioP1;P2;durP2;ratioP2
12788;SDS011;6458;42.710;23.192;2023-04-01T00:00:50;4.20;;;3.13;;
12788;SDS011;6458;42.710;23.192;2023-04-01T00:03:17;5.70;;;2.80;;
12788;SDS011;6458;42.710;23.192;2023-04-01T00:05:44;4.10;;;2.87;;
12788;SDS011;6458;42.710;23.192;2023-04-01T00:08:12;5.93;;;3.00;;
12788;SDS011;6458;42.710;23.192;2023-04-01T00:10:39;4.80;;;2.40;;
12788;SDS011;6458;42.710;23.192;2023-04-01T00:13:06;5.10;;;2.90;;
12788;SDS011;6458;42.710;23.192;2023-04-01T00:15:32;3.97;;;3.00;;
12788;SDS011;6458;42.710;23.192;2023-04-01T00:17:59;5.07;;;3.33;;
12788;SDS011;6458;42.710;23.192;2023-04-01T00:20:27;5.93;;;3.20;;
12788;SDS011;6458;42.710;23.192;2023-04-01T00:22:54;6.77;;;2.70;;
12788;SDS011;6458;42.710;23.192;2023-04-01T00:25:22;7.70;;;3.27;;
12788;SDS011;6458;42.710;23.192;2023-04-01T00:27:50;5.80;;;2.93;;
12788;SDS011;6458;42.710;23.192;2023-04-01T00:30:17;7.87;;;3.40;;
12788;SDS011;6458;42.710;23.192;2023-04-01T00:32:43;7.47;;;3.10;;
12788;SDS011;6458;42.710;23.192;2023-04-01T00:35:10;8.27;;;3.40;;
12788;SDS011;6458;42.710;23.192;2023-04-01T00:37:37;8.17;;;3.23;;
12788;SDS011;6458;42.710;23.192;2023-04-01T00:40:05;4.63;;;2.50;;
12788;SDS011;6458;42.710;23.192;2023-04-01T00:42:34;5.10;;;2.87;;
12788;SDS011;6458;42.710;23.192;2023-04-01T00:47:42;3.93;;;2.60;;
12788;SDS011;6458;42.710;23.192;2023-04-01T00:50:09;4.97;;;2.80;;
12788;SDS011;6458;42.710;23.192;2023-04-01T00:52:36;12.30;;;9.03;;
12788;SDS011;6458;42.710;23.192;2023-04-01T00:55:03;11.83;;;8.67;;
12788;SDS011;6458;42.710;23.192;2023-04-01T00:57:32;9.47;;;5.43;;
12788;SDS011;6458;42.710;23.192;2023-04-01T01:00:04;9.00;;;6.53;;
12788;SDS011;6458;42.710;23.192;2023-04-01T01:02:32;5.57;;;3.50;;
12788;SDS011;6458;42.710;23.192;2023-04-01T01:04:59;3.40;;;2.17;;
12788;SDS011;6458;42.710;23.192;2023-04-01T01:07:26;3.23;;;2.13;;
12788;SDS011;6458;42.710;23.192;2023-04-01T01:09:56;3.17;;;2.80;;
12788;SDS011;6458;42.710;23.192;2023-04-01T01:12:25;3.60;;;2.60;;
12788;SDS011;6458;42.710;23.192;2023-04-01T01:14:56;4.53;;;2.33;;
12788;SDS011;6458;42.710;23.192;2023-04-01T01:17:32;2.67;;;2.47;;
12788;SDS011;6458;42.710;23.192;2023-04-01T01:22:51;3.27;;;2.50;;
12788;SDS011;6458;42.710;23.192;2023-04-01T01:25:24;2.80;;;2.20;;
12788;SDS011;6458;42.710;23.192;2023-04-01T01:27:54;4.23;;;2.13;;
12788;SDS011;6458;42.710;23.192;2023-04-01T01:30:28;3.00;;;2.63;;
12788;SDS011;6458;42.710;23.192;2023-04-01T01:33:11;6.87;;;2.47;;
12788;SDS011;6458;42.710;23.192;2023-04-01T01:35:42;2.60;;;2.33;;
12788;SDS011;6458;42.710;23.192;2023-04-01T01:38:11;2.83;;;2.30;;
12788;SDS011;6458;42.710;23.192;2023-04-01T01:40:39;2.50;;;2.30;;
12788;SDS011;6458;42.710;23.192;2023-04-01T01:43:09;3.70;;;2.40;;
12788;SDS011;6458;42.710;23.192;2023-04-01T01:45:37;2.60;;;2.40;;
12788;SDS011;6458;42.710;23.192;2023-04-01T01:48:06;4.17;;;2.10;;
12788;SDS011;6458;42.710;23.192;2023-04-01T01:50:34;3.37;;;2.43;;
12788;SDS011;6458;42.710;23.192;2023-04-01T01:53:03;3.63;;;2.80;;
12788;SDS011;6458;42.710;23.192;2023-04-01T01:55:32;4.97;;;2.37;;
12788;SDS011;6458;42.710;23.192;2023-04-01T01:57:59;3.43;;;2.23;;
12788;SDS011;6458;42.710;23.192;2023-04-01T02:00:27;2.33;;;2.20;;
12788;SDS011;6458;42.710;23.192;2023-04-01T02:02:54;3.40;;;2.30;;
12788;SDS011;6458;42.710;23.192;2023-04-01T02:05:21;5.00;;;2.37;;
12788;SDS011;6458;42.710;23.192;2023-04-01T02:07:49;3.67;;;2.00;;
12788;SDS011;6458;42.710;23.192;2023-04-01T02:10:20;4.27;;;2.50;;
12788;SDS011;6458;42.710;23.192;2023-04-01T02:12:48;16.70;;;10.73;;
12788;SDS011;6458;42.710;23.192;2023-04-01T02:15:17;8.97;;;5.80;;
12788;SDS011;6458;42.710;23.192;2023-04-01T02:17:45;7.03;;;5.33;;
12788;SDS011;6458;42.710;23.192;2023-04-01T02:20:13;4.40;;;3.03;;
12788;SDS011;6458;42.710;23.192;2023-04-01T02:22:42;3.63;;;2.30;;
12788;SDS011;6458;42.710;23.192;2023-04-01T02:25:11;5.67;;;2.37;;
12788;SDS011;6458;42.710;23.192;2023-04-01T02:27:40;4.50;;;2.30;;
12788;SDS011;6458;42.710;23.192;2023-04-01T02:30:09;5.33;;;2.37;;
12788;SDS011;6458;42.710;23.192;2023-04-01T02:32:36;4.10;;;2.80;;
12788;SDS011;6458;42.710;23.192;2023-04-01T02:35:04;4.93;;;2.73;;
12788;SDS011;6458;42.710;23.192;2023-04-01T02:37:31;3.50;;;2.30;;
12788;SDS011;6458;42.710;23.192;2023-04-01T02:39:58;6.17;;;2.47;;
12788;SDS011;6458;42.710;23.192;2023-04-01T02:42:25;7.30;;;2.07;;
12788;SDS011;6458;42.710;23.192;2023-04-01T02:44:54;4.67;;;2.30;;
12788;SDS011;6458;42.710;23.192;2023-04-01T02:47:20;3.20;;;2.10;;
12788;SDS011;6458;42.710;23.192;2023-04-01T02:49:47;4.40;;;2.40;;
12788;SDS011;6458;42.710;23.192;2023-04-01T02:52:13;5.43;;;2.40;;
12788;SDS011;6458;42.710;23.192;2023-04-01T02:54:40;4.00;;;2.67;;
12788;SDS011;6458;42.710;23.192;2023-04-01T02:57:07;7.27;;;2.60;;
12788;SDS011;6458;42.710;23.192;2023-04-01T02:59:33;2.33;;;2.17;;
12788;SDS011;6458;42.710;23.192;2023-04-01T03:02:02;5.70;;;2.37;;
12788;SDS011;6458;42.710;23.192;2023-04-01T03:04:28;3.17;;;2.17;;
12788;SDS011;6458;42.710;23.192;2023-04-01T03:06:55;3.57;;;2.40;;
12788;SDS011;6458;42.710;23.192;2023-04-01T03:09:22;5.10;;;2.20;;
12788;SDS011;6458;42.710;23.192;2023-04-01T03:11:48;6.00;;;3.17;;
12788;SDS011;6458;42.710;23.192;2023-04-01T03:14:16;6.00;;;2.83;;
12788;SDS011;6458;42.710;23.192;2023-04-01T03:16:43;6.83;;;2.67;;
12788;SDS011;6458;42.710;23.192;2023-04-01T03:19:11;2.70;;;2.50;;
12788;SDS011;6458;42.710;23.192;2023-04-01T03:21:38;3.47;;;2.97;;
12788;SDS011;6458;42.710;23.192;2023-04-01T03:24:05;3.77;;;2.70;;
12788;SDS011;6458;42.710;23.192;2023-04-01T03:26:31;6.77;;;2.90;;
12788;SDS011;6458;42.710;23.192;2023-04-01T03:28:58;6.37;;;3.47;;
12788;SDS011;6458;42.710;23.192;2023-04-01T03:31:25;4.43;;;3.13;;
12788;SDS011;6458;42.710;23.192;2023-04-01T03:33:51;4.73;;;3.37;;
12788;SDS011;6458;42.710;23.192;2023-04-01T03:36:20;6.07;;;2.93;;
12788;SDS011;6458;42.710;23.192;2023-04-01T03:38:46;3.33;;;2.90;;
12788;SDS011;6458;42.710;23.192;2023-04-01T03:41:14;4.23;;;2.60;;
12788;SDS011;6458;42.710;23.192;2023-04-01T03:43:40;3.67;;;2.30;;
12788;SDS011;6458;42.710;23.192;2023-04-01T03:46:07;2.83;;;2.33;;
12788;SDS011;6458;42.710;23.192;2023-04-01T03:48:34;2.90;;;2.50;;
12788;SDS011;6458;42.710;23.192;2023-04-01T03:51:01;2.43;;;2.20;;
12788;SDS011;6458;42.710;23.192;2023-04-01T03:53:29;4.53;;;2.20;;
12788;SDS011;6458;42.710;23.192;2023-04-01T03:55:56;4.67;;;2.57;;
12788;SDS011;6458;42.710;23.192;2023-04-01T03:58:22;3.30;;;2.33;;
12788;SDS011;6458;42.710;23.192;2023-04-01T04:00:49;7.40;;;2.67;;
12788;SDS011;6458;42.710;23.192;2023-04-01T04:03:16;4.73;;;3.20;;
12788;SDS011;6458;42.710;23.192;2023-04-01T04:05:46;4.10;;;2.70;;
12788;SDS011;6458;42.710;23.192;2023-04-01T04:08:12;2.80;;;2.57;;
12788;SDS011;6458;42.710;23.192;2023-04-01T04:10:40;3.00;;;2.30;;
12788;SDS011;6458;42.710;23.192;2023-04-01T04:13:08;4.33;;;2.90;;
12788;SDS011;6458;42.710;23.192;2023-04-01T04:15:34;11.23;;;6.20;;
12788;SDS011;6458;42.710;23.192;2023-04-01T04:18:01;15.57;;;10.23;;
12788;SDS011;6458;42.710;23.192;2023-04-01T04:20:28;12.33;;;10.33;;
12788;SDS011;6458;42.710;23.192;2023-04-01T04:22:54;14.90;;;12.27;;
12788;SDS011;6458;42.710;23.192;2023-04-01T04:25:21;14.77;;;11.10;;
12788;SDS011;6458;42.710;23.192;2023-04-01T04:27:49;16.93;;;13.07;;
12788;SDS011;6458;42.710;23.192;2023-04-01T04:30:16;16.03;;;12.10;;
12788;SDS011;6458;42.710;23.192;2023-04-01T04:32:42;14.33;;;11.70;;
12788;SDS011;6458;42.710;23.192;2023-04-01T04:35:09;14.23;;;8.83;;
12788;SDS011;6458;42.710;23.192;2023-04-01T04:37:36;12.73;;;9.27;;
12788;SDS011;6458;42.710;23.192;2023-04-01T04:40:02;11.27;;;8.87;;
12788;SDS011;6458;42.710;23.192;2023-04-01T04:42:29;10.60;;;7.93;;
12788;SDS011;6458;42.710;23.192;2023-04-01T04:44:57;12.07;;;10.07;;
12788;SDS011;6458;42.710;23.192;2023-04-01T04:47:24;13.07;;;10.97;;
12788;SDS011;6458;42.710;23.192;2023-04-01T04:49:50;13.10;;;10.37;;
12788;SDS011;6458;42.710;23.192;2023-04-01T04:52:17;11.13;;;7.93;;
12788;SDS011;6458;42.710;23.192;2023-04-01T04:54:44;9.93;;;7.63;;
12788;SDS011;6458;42.710;23.192;2023-04-01T04:57:10;10.77;;;7.93;;
12788;SDS011;6458;42.710;23.192;2023-04-01T04:59:37;10.27;;;8.00;;
12788;SDS011;6458;42.710;23.192;2023-04-01T05:02:05;8.47;;;7.53;;
12788;SDS011;6458;42.710;23.192;2023-04-01T05:04:34;15.63;;;7.90;;
12788;SDS011;6458;42.710;23.192;2023-04-01T05:07:00;13.17;;;8.37;;
12788;SDS011;6458;42.710;23.192;2023-04-01T05:09:27;10.30;;;8.13;;
12788;SDS011;6458;42.710;23.192;2023-04-01T05:11:54;10.60;;;8.00;;
12788;SDS011;6458;42.710;23.192;2023-04-01T05:14:20;11.13;;;8.70;;
12788;SDS011;6458;42.710;23.192;2023-04-01T05:16:47;17.60;;;8.97;;
12788;SDS011;6458;42.710;23.192;2023-04-01T05:19:15;11.47;;;8.83;;
12788;SDS011;6458;42.710;23.192;2023-04-01T05:21:42;11.43;;;9.63;;
12788;SDS011;6458;42.710;23.192;2023-04-01T05:24:09;13.13;;;9.40;;
12788;SDS011;6458;42.710;23.192;2023-04-01T05:26:36;11.73;;;8.50;;
12788;SDS011;6458;42.710;23.192;2023-04-01T05:29:03;10.67;;;9.30;;
12788;SDS011;6458;42.710;23.192;2023-04-01T05:31:29;17.60;;;10.30;;
12788;SDS011;6458;42.710;23.192;2023-04-01T05:33:56;11.93;;;8.53;;
12788;SDS011;6458;42.710;23.192;2023-04-01T05:36:24;12.80;;;8.70;;
12788;SDS011;6458;42.710;23.192;2023-04-01T05:38:51;13.97;;;9.37;;
12788;SDS011;6458;42.710;23.192;2023-04-01T05:41:20;12.53;;;8.47;;
12788;SDS011;6458;42.710;23.192;2023-04-01T05:43:47;13.83;;;8.50;;
12788;SDS011;6458;42.710;23.192;2023-04-01T05:46:14;11.63;;;8.87;;
12788;SDS011;6458;42.710;23.192;2023-04-01T05:48:40;12.70;;;8.83;;
12788;SDS011;6458;42.710;23.192;2023-04-01T05:51:11;11.77;;;9.40;;
12788;SDS011;6458;42.710;23.192;2023-04-01T05:53:40;13.17;;;8.40;;
12788;SDS011;6458;42.710;23.192;2023-04-01T05:56:07;9.77;;;7.90;;
12788;SDS011;6458;42.710;23.192;2023-04-01T05:58:34;9.40;;;7.70;;
12788;SDS011;6458;42.710;23.192;2023-04-01T06:01:01;11.63;;;8.07;;
12788;SDS011;6458;42.710;23.192;2023-04-01T06:03:28;12.80;;;9.43;;
12788;SDS011;6458;42.710;23.192;2023-04-01T06:05:55;10.20;;;8.27;;
12788;SDS011;6458;42.710;23.192;2023-04-01T06:08:22;11.37;;;7.90;;
12788;SDS011;6458;42.710;23.192;2023-04-01T06:10:53;9.43;;;8.20;;
12788;SDS011;6458;42.710;23.192;2023-04-01T06:13:24;11.93;;;8.43;;
12788;SDS011;6458;42.710;23.192;2023-04-01T06:15:53;9.97;;;8.90;;
12788;SDS011;6458;42.710;23.192;2023-04-01T06:18:46;12.67;;;8.50;;
12788;SDS011;6458;42.710;23.192;2023-04-01T06:21:24;10.23;;;8.23;;
12788;SDS011;6458;42.710;23.192;2023-04-01T06:23:56;11.43;;;8.00;;
12788;SDS011;6458;42.710;23.192;2023-04-01T06:26:27;13.10;;;9.13;;
12788;SDS011;6458;42.710;23.192;2023-04-01T06:29:03;12.53;;;8.40;;
12788;SDS011;6458;42.710;23.192;2023-04-01T06:31:36;15.57;;;8.67;;
12788;SDS011;6458;42.710;23.192;2023-04-01T06:34:17;9.47;;;7.87;;
12788;SDS011;6458;42.710;23.192;2023-04-01T06:36:51;11.70;;;7.83;;
12788;SDS011;6458;42.710;23.192;2023-04-01T06:39:27;13.57;;;7.97;;
12788;SDS011;6458;42.710;23.192;2023-04-01T06:42:04;10.20;;;8.10;;
12788;SDS011;6458;42.710;23.192;2023-04-01T06:44:35;10.70;;;8.17;;
12788;SDS011;6458;42.710;23.192;2023-04-01T06:47:06;11.07;;;7.90;;
12788;SDS011;6458;42.710;23.192;2023-04-01T06:49:44;13.23;;;8.73;;
12788;SDS011;6458;42.710;23.192;2023-04-01T06:52:13;13.87;;;8.73;;
12788;SDS011;6458;42.710;23.192;2023-04-01T06:54:44;17.50;;;8.97;;
12788;SDS011;6458;42.710;23.192;2023-04-01T06:57:16;11.90;;;8.17;;
12788;SDS011;6458;42.710;23.192;2023-04-01T06:59:45;12.10;;;7.30;;
12788;SDS011;6458;42.710;23.192;2023-04-01T07:02:16;11.57;;;8.23;;
12788;SDS011;6458;42.710;23.192;2023-04-01T07:04:46;9.00;;;7.90;;
12788;SDS011;6458;42.710;23.192;2023-04-01T07:07:14;11.70;;;6.97;;
12788;SDS011;6458;42.710;23.192;2023-04-01T07:09:43;8.63;;;7.77;;
12788;SDS011;6458;42.710;23.192;2023-04-01T07:12:18;10.77;;;7.90;;
12788;SDS011;6458;42.710;23.192;2023-04-01T07:14:47;9.60;;;7.73;;
12788;SDS011;6458;42.710;23.192;2023-04-01T07:17:16;13.70;;;8.40;;
12788;SDS011;6458;42.710;23.192;2023-04-01T07:19:45;11.03;;;8.33;;
12788;SDS011;6458;42.710;23.192;2023-04-01T07:22:16;8.93;;;7.03;;
12788;SDS011;6458;42.710;23.192;2023-04-01T07:24:46;12.93;;;7.40;;
12788;SDS011;6458;42.710;23.192;2023-04-01T07:27:14;8.63;;;7.40;;
12788;SDS011;6458;42.710;23.192;2023-04-01T07:29:42;11.93;;;6.40;;
12788;SDS011;6458;42.710;23.192;2023-04-01T07:35:06;6.47;;;5.67;;
12788;SDS011;6458;42.710;23.192;2023-04-01T07:37:36;8.23;;;5.37;;
12788;SDS011;6458;42.710;23.192;2023-04-01T07:40:08;8.30;;;5.87;;
12788;SDS011;6458;42.710;23.192;2023-04-01T07:42:40;8.27;;;5.03;;
12788;SDS011;6458;42.710;23.192;2023-04-01T07:45:14;7.77;;;5.33;;
12788;SDS011;6458;42.710;23.192;2023-04-01T07:47:46;6.47;;;5.40;;
12788;SDS011;6458;42.710;23.192;2023-04-01T07:50:18;8.27;;;5.03;;
12788;SDS011;6458;42.710;23.192;2023-04-01T07:52:49;8.73;;;6.03;;
12788;SDS011;6458;42.710;23.192;2023-04-01T07:55:19;6.20;;;5.50;;
12788;SDS011;6458;42.710;23.192;2023-04-01T07:57:49;6.13;;;5.53;;
12788;SDS011;6458;42.710;23.192;2023-04-01T08:00:22;7.17;;;5.70;;
12788;SDS011;6458;42.710;23.192;2023-04-01T08:02:55;9.83;;;5.53;;
12788;SDS011;6458;42.710;23.192;2023-04-01T08:05:27;9.90;;;6.07;;
12788;SDS011;6458;42.710;23.192;2023-04-01T08:07:57;6.40;;;5.60;;
12788;SDS011;6458;42.710;23.192;2023-04-01T08:10:30;10.63;;;5.50;;
12788;SDS011;6458;42.710;23.192;2023-04-01T08:13:01;6.17;;;5.10;;
12788;SDS011;6458;42.710;23.192;2023-04-01T08:15:32;6.57;;;5.10;;
12788;SDS011;6458;42.710;23.192;2023-04-01T08:18:08;5.10;;;4.70;;
12788;SDS011;6458;42.710;23.192;2023-04-01T08:20:38;8.30;;;4.40;;
12788;SDS011;6458;42.710;23.192;2023-04-01T08:23:11;5.93;;;4.87;;
12788;SDS011;6458;42.710;23.192;2023-04-01T08:25:39;9.27;;;4.57;;
12788;SDS011;6458;42.710;23.192;2023-04-01T08:28:09;4.90;;;4.40;;
12788;SDS011;6458;42.710;23.192;2023-04-01T08:30:40;7.07;;;3.97;;
12788;SDS011;6458;42.710;23.192;2023-04-01T08:33:11;4.00;;;3.70;;
12788;SDS011;6458;42.710;23.192;2023-04-01T08:35:40;5.07;;;4.30;;
12788;SDS011;6458;42.710;23.192;2023-04-01T08:38:10;8.07;;;3.80;;
12788;SDS011;6458;42.710;23.192;2023-04-01T08:40:47;4.80;;;3.43;;
12788;SDS011;6458;42.710;23.192;2023-04-01T08:43:21;5.13;;;4.00;;
12788;SDS011;6458;42.710;23.192;2023-04-01T08:46:10;3.83;;;3.47;;
12788;SDS011;6458;42.710;23.192;2023-04-01T08:48:47;5.80;;;3.60;;
12788;SDS011;6458;42.710;23.192;2023-04-01T08:56:53;4.47;;;3.30;;
12788;SDS011;6458;42.710;23.192;2023-04-01T08:59:29;5.67;;;2.87;;
12788;SDS011;6458;42.710;23.192;2023-04-01T09:02:10;8.90;;;3.40;;
12788;SDS011;6458;42.710;23.192;2023-04-01T09:04:49;7.33;;;3.73;;
12788;SDS011;6458;42.710;23.192;2023-04-01T09:07:22;5.37;;;2.97;;
12788;SDS011;6458;42.710;23.192;2023-04-01T09:10:05;8.10;;;3.17;;
12788;SDS011;6458;42.710;23.192;2023-04-01T09:12:41;5.80;;;2.53;;
12788;SDS011;6458;42.710;23.192;2023-04-01T09:15:26;6.83;;;2.50;;
12788;SDS011;6458;42.710;23.192;2023-04-01T09:18:12;7.37;;;2.67;;
12788;SDS011;6458;42.710;23.192;2023-04-01T09:20:51;4.97;;;2.77;;
12788;SDS011;6458;42.710;23.192;2023-04-01T09:23:28;5.77;;;2.50;;
12788;SDS011;6458;42.710;23.192;2023-04-01T09:25:58;3.33;;;2.30;;
12788;SDS011;6458;42.710;23.192;2023-04-01T09:28:33;4.53;;;2.37;;
12788;SDS011;6458;42.710;23.192;2023-04-01T09:33:42;4.00;;;2.20;;
12788;SDS011;6458;42.710;23.192;2023-04-01T09:39:18;9.30;;;2.57;;
12788;SDS011;6458;42.710;23.192;2023-04-01T09:41:52;5.37;;;2.30;;
12788;SDS011;6458;42.710;23.192;2023-04-01T09:44:23;3.67;;;2.30;;
12788;SDS011;6458;42.710;23.192;2023-04-01T09:46:58;5.03;;;3.07;;
12788;SDS011;6458;42.710;23.192;2023-04-01T09:52:20;3.77;;;2.10;;
12788;SDS011;6458;42.710;23.192;2023-04-01T09:54:58;4.23;;;2.60;;
12788;SDS011;6458;42.710;23.192;2023-04-01T09:57:52;2.20;;;2.00;;
12788;SDS011;6458;42.710;23.192;2023-04-01T10:00:34;3.70;;;2.37;;
12788;SDS011;6458;42.710;23.192;2023-04-01T10:03:10;5.93;;;2.07;;
12788;SDS011;6458;42.710;23.192;2023-04-01T10:08:38;5.53;;;3.00;;
12788;SDS011;6458;42.710;23.192;2023-04-01T10:11:23;9.10;;;2.60;;
12788;SDS011;6458;42.710;23.192;2023-04-01T10:14:07;7.97;;;3.00;;
12788;SDS011;6458;42.710;23.192;2023-04-01T10:19:43;4.47;;;2.73;;
12788;SDS011;6458;42.710;23.192;2023-04-01T10:22:21;3.43;;;2.73;;
12788;SDS011;6458;42.710;23.192;2023-04-01T10:27:54;7.50;;;2.70;;
12788;SDS011;6458;42.710;23.192;2023-04-01T10:47:04;8.57;;;2.50;;
12788;SDS011;6458;42.710;23.192;2023-04-01T10:49:41;3.37;;;2.23;;
12788;SDS011;6458;42.710;23.192;2023-04-01T10:55:15;4.10;;;2.30;;
12788;SDS011;6458;42.710;23.192;2023-04-01T10:58:02;4.23;;;2.80;;
12788;SDS011;6458;42.710;23.192;2023-04-01T11:03:31;4.07;;;2.17;;
12788;SDS011;6458;42.710;23.192;2023-04-01T11:06:30;4.53;;;2.03;;
12788;SDS011;6458;42.710;23.192;2023-04-01T11:09:17;3.83;;;2.17;;
12788;SDS011;6458;42.710;23.192;2023-04-01T11:12:03;4.30;;;2.20;;
12788;SDS011;6458;42.710;23.192;2023-04-01T11:17:29;3.93;;;2.07;;
12788;SDS011;6458;42.710;23.192;2023-04-01T11:20:08;7.33;;;3.20;;
12788;SDS011;6458;42.710;23.192;2023-04-01T11:22:57;3.00;;;2.20;;
12788;SDS011;6458;42.710;23.192;2023-04-01T11:25:47;5.77;;;2.57;;
12788;SDS011;6458;42.710;23.192;2023-04-01T11:28:26;2.60;;;2.37;;
12788;SDS011;6458;42.710;23.192;2023-04-01T11:31:03;5.07;;;2.53;;
12788;SDS011;6458;42.710;23.192;2023-04-01T11:33:33;5.87;;;2.50;;
12788;SDS011;6458;42.710;23.192;2023-04-01T11:38:53;6.60;;;3.17;;
12788;SDS011;6458;42.710;23.192;2023-04-01T11:41:24;4.87;;;3.00;;
12788;SDS011;6458;42.710;23.192;2023-04-01T11:43:55;3.93;;;3.07;;
12788;SDS011;6458;42.710;23.192;2023-04-01T11:46:25;3.90;;;3.10;;
12788;SDS011;6458;42.710;23.192;2023-04-01T11:48:58;5.93;;;4.03;;
12788;SDS011;6458;42.710;23.192;2023-04-01T11:51:36;4.40;;;3.77;;
12788;SDS011;6458;42.710;23.192;2023-04-01T11:54:06;3.57;;;3.33;;
12788;SDS011;6458;42.710;23.192;2023-04-01T11:56:49;6.97;;;4.00;;
12788;SDS011;6458;42.710;23.192;2023-04-01T11:59:29;4.93;;;4.23;;
12788;SDS011;6458;42.710;23.192;2023-04-01T12:02:03;4.60;;;4.20;;
12788;SDS011;6458;42.710;23.192;2023-04-01T12:04:46;4.73;;;3.77;;
12788;SDS011;6458;42.710;23.192;2023-04-01T12:07:21;4.60;;;3.63;;
12788;SDS011;6458;42.710;23.192;2023-04-01T12:09:55;4.00;;;3.70;;
12788;SDS011;6458;42.710;23.192;2023-04-01T12:12:27;4.87;;;4.17;;
12788;SDS011;6458;42.710;23.192;2023-04-01T12:15:05;6.20;;;4.90;;
12788;SDS011;6458;42.710;23.192;2023-04-01T12:17:39;5.10;;;3.97;;
12788;SDS011;6458;42.710;23.192;2023-04-01T12:20:16;6.80;;;3.70;;
12788;SDS011;6458;42.710;23.192;2023-04-01T12:22:49;3.80;;;3.50;;
12788;SDS011;6458;42.710;23.192;2023-04-01T12:25:24;3.13;;;2.60;;
12788;SDS011;6458;42.710;23.192;2023-04-01T12:27:56;2.90;;;2.70;;
12788;SDS011;6458;42.710;23.192;2023-04-01T12:30:32;3.07;;;2.80;;
12788;SDS011;6458;42.710;23.192;2023-04-01T12:33:04;2.70;;;2.50;;
12788;SDS011;6458;42.710;23.192;2023-04-01T12:35:41;3.03;;;2.67;;
12788;SDS011;6458;42.710;23.192;2023-04-01T12:38:15;4.07;;;2.93;;
12788;SDS011;6458;42.710;23.192;2023-04-01T12:40:54;2.60;;;2.40;;
12788;SDS011;6458;42.710;23.192;2023-04-01T12:43:27;2.60;;;2.40;;
12788;SDS011;6458;42.710;23.192;2023-04-01T12:45:57;2.60;;;2.40;;
12788;SDS011;6458;42.710;23.192;2023-04-01T12:48:50;2.70;;;2.50;;
12788;SDS011;6458;42.710;23.192;2023-04-01T12:51:36;2.67;;;2.43;;
12788;SDS011;6458;42.710;23.192;2023-04-01T12:56:52;2.90;;;2.77;;
12788;SDS011;6458;42.710;23.192;2023-04-01T13:10:20;3.37;;;2.20;;
12788;SDS011;6458;42.710;23.192;2023-04-01T13:12:59;2.27;;;2.17;;
12788;SDS011;6458;42.710;23.192;2023-04-01T13:15:28;2.33;;;2.23;;
12788;SDS011;6458;42.710;23.192;2023-04-01T13:17:58;2.67;;;2.50;;
12788;SDS011;6458;42.710;23.192;2023-04-01T13:20:30;3.77;;;3.00;;
12788;SDS011;6458;42.710;23.192;2023-04-01T13:23:03;2.20;;;2.00;;
12788;SDS011;6458;42.710;23.192;2023-04-01T13:25:34;2.30;;;2.10;;
12788;SDS011;6458;42.710;23.192;2023-04-01T13:28:05;2.40;;;2.20;;
12788;SDS011;6458;42.710;23.192;2023-04-01T13:30:36;2.77;;;2.57;;
12788;SDS011;6458;42.710;23.192;2023-04-01T13:33:09;3.23;;;2.97;;
12788;SDS011;6458;42.710;23.192;2023-04-01T13:35:40;2.70;;;2.50;;
12788;SDS011;6458;42.710;23.192;2023-04-01T13:38:32;2.60;;;2.40;;
12788;SDS011;6458;42.710;23.192;2023-04-01T13:41:05;3.33;;;2.70;;
12788;SDS011;6458;42.710;23.192;2023-04-01T13:43:34;2.90;;;2.70;;
12788;SDS011;6458;42.710;23.192;2023-04-01T13:46:08;4.00;;;3.40;;
12788;SDS011;6458;42.710;23.192;2023-04-01T13:48:50;3.80;;;3.10;;
12788;SDS011;6458;42.710;23.192;2023-04-01T13:54:25;2.40;;;2.30;;
12788;SDS011;6458;42.710;23.192;2023-04-01T13:56:57;6.60;;;2.60;;
12788;SDS011;6458;42.710;23.192;2023-04-01T14:02:24;3.97;;;2.50;;
12788;SDS011;6458;42.710;23.192;2023-04-01T14:05:00;2.60;;;2.40;;
12788;SDS011;6458;42.710;23.192;2023-04-01T14:07:38;2.50;;;2.30;;
12788;SDS011;6458;42.710;23.192;2023-04-01T14:10:15;2.40;;;2.20;;
12788;SDS011;6458;42.710;23.192;2023-04-01T14:12:46;2.77;;;1.97;;
12788;SDS011;6458;42.710;23.192;2023-04-01T14:15:22;2.07;;;1.97;;
12788;SDS011;6458;42.710;23.192;2023-04-01T14:17:55;2.03;;;1.97;;
12788;SDS011;6458;42.710;23.192;2023-04-01T14:20:33;2.20;;;2.00;;
12788;SDS011;6458;42.710;23.192;2023-04-01T14:31:26;1.70;;;1.60;;
12788;SDS011;6458;42.710;23.192;2023-04-01T14:34:00;2.30;;;2.20;;
12788;SDS011;6458;42.710;23.192;2023-04-01T14:39:15;2.10;;;2.00;;
12788;SDS011;6458;42.710;23.192;2023-04-01T14:41:48;2.70;;;1.80;;
12788;SDS011;6458;42.710;23.192;2023-04-01T14:47:09;3.33;;;2.30;;
12788;SDS011;6458;42.710;23.192;2023-04-01T14:49:44;1.80;;;1.70;;
12788;SDS011;6458;42.710;23.192;2023-04-01T14:52:13;2.03;;;1.70;;
12788;SDS011;6458;42.710;23.192;2023-04-01T14:54:42;2.10;;;1.90;;
12788;SDS011;6458;42.710;23.192;2023-04-01T14:57:11;2.03;;;1.70;;
12788;SDS011;6458;42.710;23.192;2023-04-01T14:59:39;1.93;;;1.83;;
12788;SDS011;6458;42.710;23.192;2023-04-01T15:02:09;2.93;;;1.60;;
12788;SDS011;6458;42.710;23.192;2023-04-01T15:04:43;2.00;;;1.90;;
12788;SDS011;6458;42.710;23.192;2023-04-01T15:07:18;1.90;;;1.73;;
12788;SDS011;6458;42.710;23.192;2023-04-01T15:09:48;2.23;;;2.03;;
12788;SDS011;6458;42.710;23.192;2023-04-01T15:12:22;2.70;;;2.00;;
12788;SDS011;6458;42.710;23.192;2023-04-01T15:14:59;2.13;;;2.03;;
12788;SDS011;6458;42.710;23.192;2023-04-01T15:17:43;1.97;;;1.87;;
12788;SDS011;6458;42.710;23.192;2023-04-01T15:20:19;2.50;;;2.30;;
12788;SDS011;6458;42.710;23.192;2023-04-01T15:22:57;2.57;;;2.40;;
12788;SDS011;6458;42.710;23.192;2023-04-01T15:25:34;2.60;;;2.40;;
12788;SDS011;6458;42.710;23.192;2023-04-01T15:28:06;2.17;;;1.97;;
12788;SDS011;6458;42.710;23.192;2023-04-01T15:30:35;2.20;;;2.10;;
12788;SDS011;6458;42.710;23.192;2023-04-01T15:33:17;2.47;;;2.27;;
12788;SDS011;6458;42.710;23.192;2023-04-01T15:35:49;2.20;;;2.10;;
12788;SDS011;6458;42.710;23.192;2023-04-01T15:38:20;2.73;;;2.50;;
12788;SDS011;6458;42.710;23.192;2023-04-01T15:40:53;1.20;;;1.20;;
12788;SDS011;6458;42.710;23.192;2023-04-01T15:43:27;1.73;;;1.50;;
12788;SDS011;6458;42.710;23.192;2023-04-01T15:45:58;2.93;;;1.40;;
12788;SDS011;6458;42.710;23.192;2023-04-01T15:48:40;1.80;;;1.80;;
12788;SDS011;6458;42.710;23.192;2023-04-01T15:51:18;2.30;;;2.10;;
12788;SDS011;6458;42.710;23.192;2023-04-01T15:53:52;2.00;;;1.90;;
12788;SDS011;6458;42.710;23.192;2023-04-01T15:56:26;1.80;;;1.70;;
12788;SDS011;6458;42.710;23.192;2023-04-01T15:58:58;1.70;;;1.60;;
12788;SDS011;6458;42.710;23.192;2023-04-01T16:01:29;2.20;;;2.03;;
12788;SDS011;6458;42.710;23.192;2023-04-01T16:04:06;2.53;;;2.27;;
12788;SDS011;6458;42.710;23.192;2023-04-01T16:06:55;2.90;;;2.20;;
12788;SDS011;6458;42.710;23.192;2023-04-01T16:09:38;2.47;;;2.37;;
12788;SDS011;6458;42.710;23.192;2023-04-01T16:12:10;2.33;;;2.23;;
12788;SDS011;6458;42.710;23.192;2023-04-01T16:14:43;2.60;;;2.50;;
12788;SDS011;6458;42.710;23.192;2023-04-01T16:17:23;2.33;;;2.23;;
12788;SDS011;6458;42.710;23.192;2023-04-01T16:19:55;2.80;;;2.60;;
12788;SDS011;6458;42.710;23.192;2023-04-01T16:22:27;2.33;;;2.23;;
12788;SDS011;6458;42.710;23.192;2023-04-01T16:24:59;2.90;;;2.80;;
12788;SDS011;6458;42.710;23.192;2023-04-01T16:27:33;2.60;;;2.50;;
12788;SDS011;6458;42.710;23.192;2023-04-01T16:30:03;2.10;;;2.00;;
12788;SDS011;6458;42.710;23.192;2023-04-01T16:32:49;2.23;;;2.13;;
12788;SDS011;6458;42.710;23.192;2023-04-01T16:35:23;2.00;;;1.93;;
12788;SDS011;6458;42.710;23.192;2023-04-01T16:37:54;1.93;;;1.93;;
12788;SDS011;6458;42.710;23.192;2023-04-01T16:40:24;2.37;;;2.27;;
12788;SDS011;6458;42.710;23.192;2023-04-01T16:42:52;2.30;;;2.20;;
12788;SDS011;6458;42.710;23.192;2023-04-01T16:45:23;2.30;;;2.10;;